Navitec — VRMR3 — position and weather

sailwx.info

Track history (hours):
 
Tides and Currents Weather Stations Pressure Air Temp Water Temp Dewpoint Dewpoint Depression Visibility Wind Speed Wind Dir Waves Ship Positions

Navitec

Last reported at 2017-Oct-01 03:28 UTC. Time now 2017-Oct-20 18:15 UTC.
Position S 27°52' E 153°48'.
Warning: this ship's position is 19 days out of date.

Length 199 m; draft 11.1 m.

Type: Cargo ship. MMSI: 477219500.

Date/timePositionNaut miles runAvg speedWind from/ knotsBaromVisibWave heightAir tempDewpointWater temp
2017-Oct-01 03:28S 27°52' E 153°48'4 9.4
2017-Oct-01 03:00S 27°57' E 153°48'27610.5
2017-Sep-30 00:41S 32°26' E 152°39'211.9
2017-Sep-30 00:30S 32°28' E 152°38'911.7
2017-Sep-29 23:43S 32°36' E 152°32'312.0
2017-Sep-29 23:30S 32°38' E 152°30'611.9
2017-Sep-29 23:00S 32°43' E 152°27'611.9
2017-Sep-29 22:30S 32°48' E 152°23'611.9
2017-Sep-29 22:00S 32°53' E 152°19'612.0
2017-Sep-29 21:30S 32°58' E 152°15'612.0
2017-Sep-29 21:00S 33°03' E 152°11'612.2
2017-Sep-29 20:30S 33°08' E 152°07'612.2
2017-Sep-29 20:00S 33°13' E 152°04'612.2
2017-Sep-29 19:30S 33°18' E 151°60'612.2
2017-Sep-29 19:00S 33°23' E 151°56'712.2
2017-Sep-29 18:28S 33°29' E 151°51'1612.3
2017-Sep-29 17:12S 33°42' E 151°41'512.4
2017-Sep-29 16:50S 33°46' E 151°38'512.1
2017-Sep-29 16:24S 33°50' E 151°35'511.5
2017-Sep-29 16:00S 33°55' E 151°33'811.3
2017-Sep-29 15:18S 34°02' E 151°30'311.0
2017-Sep-29 15:00S 34°05' E 151°29'710.7
2017-Sep-29 14:20S 34°12' E 151°26'410.5
2017-Sep-29 13:55S 34°16' E 151°24'410.3
2017-Sep-29 13:30S 34°20' E 151°22'  
2017-Sep-22 02:00S 32°00' E 152°53'713.3
2017-Sep-22 01:30S 31°54' E 152°55'713.5
2017-Sep-22 00:59S 31°47' E 152°58'18914.4
2017-Sep-21 11:50S 28°42' E 153°45'514.1
2017-Sep-21 11:28S 28°37' E 153°45'613.9
2017-Sep-21 11:00S 28°31' E 153°45'713.8
2017-Sep-21 10:30S 28°24' E 153°46'713.5
2017-Sep-21 10:00S 28°17' E 153°47'713.2
2017-Sep-21 09:30S 28°11' E 153°47'713.0
2017-Sep-21 09:00S 28°04' E 153°48'613.1
2017-Sep-21 08:30S 27°57' E 153°48'613.1
2017-Sep-21 08:00S 27°51' E 153°48'612.9
2017-Sep-21 07:30S 27°45' E 153°48'612.8
2017-Sep-21 07:00S 27°38' E 153°49'  
Track history (hours):
 
Tides and Currents Weather Stations Pressure Air Temp Water Temp Dewpoint Dewpoint Depression Visibility Wind Speed Wind Dir Waves Ship Positions

Navitec

Last reported at 2017-Oct-01 03:28 UTC. Time now 2017-Oct-20 18:15 UTC.
Position S 27°52' E 153°48'.
Warning: this ship's position is 19 days out of date.

Length 199 m; draft 11.1 m.

Type: Cargo ship. MMSI: 477219500.

Date/timePositionNaut miles runAvg speedWind from/ knotsBaromVisibWave heightAir tempDewpointWater temp
2017-Oct-01 03:28S 27°52' E 153°48'4 9.4
2017-Oct-01 03:00S 27°57' E 153°48'27610.5
2017-Sep-30 00:41S 32°26' E 152°39'211.9
2017-Sep-30 00:30S 32°28' E 152°38'911.7
2017-Sep-29 23:43S 32°36' E 152°32'312.0
2017-Sep-29 23:30S 32°38' E 152°30'611.9
2017-Sep-29 23:00S 32°43' E 152°27'611.9
2017-Sep-29 22:30S 32°48' E 152°23'611.9
2017-Sep-29 22:00S 32°53' E 152°19'612.0
2017-Sep-29 21:30S 32°58' E 152°15'612.0
2017-Sep-29 21:00S 33°03' E 152°11'612.2
2017-Sep-29 20:30S 33°08' E 152°07'612.2
2017-Sep-29 20:00S 33°13' E 152°04'612.2
2017-Sep-29 19:30S 33°18' E 151°60'612.2
2017-Sep-29 19:00S 33°23' E 151°56'712.2
2017-Sep-29 18:28S 33°29' E 151°51'1612.3
2017-Sep-29 17:12S 33°42' E 151°41'512.4
2017-Sep-29 16:50S 33°46' E 151°38'512.1
2017-Sep-29 16:24S 33°50' E 151°35'511.5
2017-Sep-29 16:00S 33°55' E 151°33'811.3
2017-Sep-29 15:18S 34°02' E 151°30'311.0
2017-Sep-29 15:00S 34°05' E 151°29'710.7
2017-Sep-29 14:20S 34°12' E 151°26'410.5
2017-Sep-29 13:55S 34°16' E 151°24'410.3
2017-Sep-29 13:30S 34°20' E 151°22'  
2017-Sep-22 02:00S 32°00' E 152°53'713.3
2017-Sep-22 01:30S 31°54' E 152°55'713.5
2017-Sep-22 00:59S 31°47' E 152°58'18914.4
2017-Sep-21 11:50S 28°42' E 153°45'514.1
2017-Sep-21 11:28S 28°37' E 153°45'613.9
2017-Sep-21 11:00S 28°31' E 153°45'713.8
2017-Sep-21 10:30S 28°24' E 153°46'713.5
2017-Sep-21 10:00S 28°17' E 153°47'713.2
2017-Sep-21 09:30S 28°11' E 153°47'713.0
2017-Sep-21 09:00S 28°04' E 153°48'613.1
2017-Sep-21 08:30S 27°57' E 153°48'613.1
2017-Sep-21 08:00S 27°51' E 153°48'612.9
2017-Sep-21 07:30S 27°45' E 153°48'612.8
2017-Sep-21 07:00S 27°38' E 153°49'  

Dump ship's entire track history